Terminal Aerodrome Forecast
Issued by NWS

Home | Current Version | Previous Version | Text Only | Print | Product List | Glossary On
Versions: 1 2 3 4 5 6 7 8 9 10 11 12 13 14 15 16 17 18 19 20 21 22 23 24
000
FTUS43 KLSX 181500 AAC
TAFCPS
TAF AMD
KCPS 181526Z 1815/1912 04004KT 3SM -SN BR SCT008 OVC020
      TEMPO 1816/1818 1 1/2SM -SN BR BKN008 OVC015
     FM181800 06004KT 5SM -SN BR OVC025
     FM190000 06004KT 5SM BR OVC015
     FM190700 06004KT 3SM BR OVC008=

USA.gov is the U.S. government's official web portal to all federal, state and local government web resources and services.